createdAt,value
2023-04-30T00:00:29.138Z,8.19
2023-04-30T00:01:29.122Z,8.16
2023-04-30T00:02:29.248Z,8.19
2023-04-30T00:03:29.199Z,8.19
2023-04-30T00:04:29.190Z,8.16
2023-04-30T00:05:29.100Z,8.15
2023-04-30T00:06:29.179Z,8.11
2023-04-30T00:07:29.078Z,8.08
2023-04-30T00:08:29.049Z,8.11
2023-04-30T00:09:29.033Z,8.11
2023-04-30T00:10:29.024Z,8.08
2023-04-30T00:11:29.013Z,8.04
2023-04-30T00:12:29.045Z,8.01
2023-04-30T00:13:29.005Z,7.98
2023-04-30T00:14:28.993Z,7.98
2023-04-30T00:15:28.964Z,8.01
2023-04-30T00:16:29.042Z,8.05
2023-04-30T00:17:28.992Z,8.02
2023-04-30T00:18:28.992Z,8.04
2023-04-30T00:19:28.930Z,8.02
2023-04-30T00:20:28.946Z,8.00
2023-04-30T00:21:28.902Z,7.98
2023-04-30T00:22:28.901Z,8.01
2023-04-30T00:23:28.892Z,8.01
2023-04-30T00:24:28.928Z,8.01
2023-04-30T00:25:28.858Z,7.97
2023-04-30T00:26:28.844Z,7.95
2023-04-30T00:27:28.844Z,7.89
2023-04-30T00:28:28.901Z,7.89
2023-04-30T00:29:28.848Z,7.86
2023-04-30T00:30:28.861Z,7.82
2023-04-30T00:31:28.896Z,7.77
2023-04-30T00:32:28.792Z,7.75
2023-04-30T00:33:28.819Z,7.74
2023-04-30T00:34:28.793Z,7.69
2023-04-30T00:35:28.784Z,7.68
2023-04-30T00:36:28.755Z,7.64
2023-04-30T00:37:28.741Z,7.63
2023-04-30T00:38:28.734Z,7.63
2023-04-30T00:39:28.709Z,7.64
2023-04-30T00:40:28.700Z,7.63
2023-04-30T00:41:28.676Z,7.60
2023-04-30T00:42:28.699Z,7.60
2023-04-30T00:43:28.667Z,7.55
2023-04-30T00:44:28.665Z,7.52
2023-04-30T00:45:28.634Z,7.49
2023-04-30T00:46:28.740Z,7.43
2023-04-30T00:47:28.686Z,7.40
2023-04-30T00:48:28.633Z,7.43
2023-04-30T00:49:28.598Z,7.40
2023-04-30T00:50:28.588Z,7.45
2023-04-30T00:51:28.564Z,7.43
2023-04-30T00:52:28.563Z,7.45
2023-04-30T00:53:28.627Z,7.46
2023-04-30T00:54:28.604Z,7.45
2023-04-30T00:55:28.542Z,7.45
2023-04-30T00:56:28.519Z,7.43
2023-04-30T00:57:28.514Z,7.40
2023-04-30T00:58:28.530Z,7.39
2023-04-30T00:59:28.492Z,7.35
2023-04-30T01:00:28.483Z,7.34
2023-04-30T01:01:28.488Z,7.34
2023-04-30T01:02:28.564Z,7.31
2023-04-30T01:03:28.575Z,7.31
2023-04-30T01:04:28.439Z,7.30
2023-04-30T01:05:28.422Z,7.32
2023-04-30T01:06:28.467Z,7.32
2023-04-30T01:07:28.440Z,7.34
2023-04-30T01:08:28.432Z,7.31
2023-04-30T01:09:28.374Z,7.31
2023-04-30T01:10:28.369Z,7.28
2023-04-30T01:11:28.369Z,7.28
2023-04-30T01:12:28.370Z,7.28
2023-04-30T01:13:28.331Z,7.27
2023-04-30T01:14:28.362Z,7.28
2023-04-30T01:15:28.338Z,7.28
2023-04-30T01:16:28.413Z,7.27
2023-04-30T01:17:28.324Z,7.31
2023-04-30T01:18:28.574Z,7.34
2023-04-30T01:19:28.268Z,7.37
2023-04-30T01:20:28.254Z,7.42
2023-04-30T01:21:28.248Z,7.39
2023-04-30T01:22:28.277Z,7.34
2023-04-30T01:23:28.223Z,7.30
2023-04-30T01:24:28.215Z,7.28
2023-04-30T01:25:28.226Z,7.28
2023-04-30T01:26:28.194Z,7.27
2023-04-30T01:27:28.180Z,7.23
2023-04-30T01:28:28.177Z,7.23
2023-04-30T01:29:28.171Z,7.21
2023-04-30T01:30:28.187Z,7.25
2023-04-30T01:31:28.212Z,7.25
2023-04-30T01:32:28.143Z,7.24
2023-04-30T01:33:28.130Z,7.27
2023-04-30T01:34:28.099Z,7.25
2023-04-30T01:35:28.098Z,7.23
2023-04-30T01:36:28.081Z,7.24
2023-04-30T01:37:28.072Z,7.23
2023-04-30T01:38:28.144Z,7.24
2023-04-30T01:39:28.049Z,7.27
2023-04-30T01:40:28.036Z,7.27
2023-04-30T01:41:28.046Z,7.23
2023-04-30T01:42:28.055Z,7.23
2023-04-30T01:43:28.007Z,7.20
2023-04-30T01:44:28.010Z,7.13
2023-04-30T01:45:28.005Z,7.09
2023-04-30T01:46:28.120Z,7.05
2023-04-30T01:47:28.009Z,7.02
2023-04-30T01:48:27.969Z,6.98
2023-04-30T01:49:27.944Z,6.98
2023-04-30T01:50:27.937Z,6.95
2023-04-30T01:51:27.971Z,6.92
2023-04-30T01:52:27.913Z,6.94
2023-04-30T01:53:27.930Z,6.94
2023-04-30T01:54:27.887Z,6.94
2023-04-30T01:55:27.886Z,6.89
2023-04-30T01:56:27.866Z,6.85
2023-04-30T01:57:27.913Z,6.80
2023-04-30T01:58:27.878Z,6.77
2023-04-30T01:59:27.885Z,6.74
2023-04-30T02:00:27.817Z,6.71
2023-04-30T02:01:27.887Z,6.69
2023-04-30T02:02:27.973Z,6.67
2023-04-30T02:03:28.111Z,6.64
2023-04-30T02:04:27.878Z,6.62
2023-04-30T02:05:27.812Z,6.64
2023-04-30T02:06:27.826Z,6.61
2023-04-30T02:07:27.784Z,6.58
2023-04-30T02:08:27.733Z,6.55
2023-04-30T02:09:27.720Z,6.54
2023-04-30T02:10:27.719Z,6.54
2023-04-30T02:11:27.708Z,6.54
2023-04-30T02:12:27.701Z,6.48
2023-04-30T02:13:27.702Z,6.46
2023-04-30T02:14:27.666Z,6.40
2023-04-30T02:15:27.660Z,6.36
2023-04-30T02:16:27.683Z,6.37
2023-04-30T02:17:27.656Z,6.36
2023-04-30T02:18:27.648Z,6.37
2023-04-30T02:19:27.718Z,6.38
2023-04-30T02:20:27.620Z,6.40
2023-04-30T02:21:27.610Z,6.41
2023-04-30T02:22:27.595Z,6.41
2023-04-30T02:23:27.570Z,6.44
2023-04-30T02:24:27.595Z,6.44
2023-04-30T02:25:27.562Z,6.40
2023-04-30T02:26:27.533Z,6.37
2023-04-30T02:27:27.547Z,6.38
2023-04-30T02:28:27.511Z,6.40
2023-04-30T02:29:27.509Z,6.36
2023-04-30T02:30:27.491Z,6.33
2023-04-30T02:31:27.543Z,6.33
2023-04-30T02:32:27.541Z,6.33
2023-04-30T02:33:27.477Z,6.31
2023-04-30T02:34:27.451Z,6.33
2023-04-30T02:35:27.446Z,6.34
2023-04-30T02:36:27.434Z,6.33
2023-04-30T02:37:27.434Z,6.30
2023-04-30T02:38:27.406Z,6.28
2023-04-30T02:39:27.405Z,6.27
2023-04-30T02:40:27.382Z,6.25
2023-04-30T02:41:27.375Z,6.28
2023-04-30T02:42:27.457Z,6.38
2023-04-30T02:43:27.397Z,6.43
2023-04-30T02:44:27.332Z,6.40
2023-04-30T02:45:27.380Z,6.37
2023-04-30T02:46:27.316Z,6.37
2023-04-30T02:47:27.382Z,6.34
2023-04-30T02:48:27.289Z,6.30
2023-04-30T02:49:27.285Z,6.22
2023-04-30T02:50:27.272Z,6.25
2023-04-30T02:51:27.268Z,6.25
2023-04-30T02:52:27.275Z,6.19
2023-04-30T02:53:27.262Z,6.17
2023-04-30T02:54:27.241Z,6.12
2023-04-30T02:55:27.236Z,6.08
2023-04-30T02:56:27.207Z,6.04
2023-04-30T02:57:27.216Z,6.01
2023-04-30T02:58:27.215Z,6.03
2023-04-30T02:59:27.177Z,6.11
2023-04-30T03:00:27.170Z,6.22
2023-04-30T03:01:27.230Z,6.25
2023-04-30T03:02:27.232Z,6.25
2023-04-30T03:03:27.205Z,6.22
2023-04-30T03:04:27.135Z,6.25
2023-04-30T03:05:27.116Z,6.21
2023-04-30T03:06:27.136Z,6.21
2023-04-30T03:07:27.100Z,6.18
2023-04-30T03:08:27.081Z,6.21
2023-04-30T03:09:27.062Z,6.21
2023-04-30T03:10:27.122Z,6.21
2023-04-30T03:11:27.046Z,6.18
2023-04-30T03:12:27.043Z,6.18
2023-04-30T03:13:27.087Z,6.15
2023-04-30T03:14:26.997Z,6.14
2023-04-30T03:15:27.018Z,6.12
2023-04-30T03:16:27.092Z,6.17
2023-04-30T03:17:27.035Z,6.18
2023-04-30T03:18:26.961Z,6.21
2023-04-30T03:19:26.965Z,6.21
2023-04-30T03:20:26.955Z,6.22
2023-04-30T03:21:26.937Z,6.21
2023-04-30T03:22:26.935Z,6.18
2023-04-30T03:23:26.917Z,6.15
2023-04-30T03:24:26.907Z,6.17
2023-04-30T03:25:26.889Z,6.15
2023-04-30T03:26:26.886Z,6.17
2023-04-30T03:27:26.888Z,6.15
2023-04-30T03:28:26.858Z,6.12
2023-04-30T03:29:26.848Z,6.09
2023-04-30T03:30:26.837Z,6.06
2023-04-30T03:31:26.874Z,6.04
2023-04-30T03:32:26.893Z,6.06
2023-04-30T03:33:26.849Z,6.06
2023-04-30T03:34:26.824Z,6.18
2023-04-30T03:35:26.800Z,6.28
2023-04-30T03:36:26.781Z,6.31
2023-04-30T03:37:26.800Z,6.31
2023-04-30T03:38:26.770Z,6.36
2023-04-30T03:39:26.741Z,6.37
2023-04-30T03:40:26.730Z,6.40
2023-04-30T03:41:26.724Z,6.41
2023-04-30T03:42:26.709Z,6.41
2023-04-30T03:43:26.771Z,6.44
2023-04-30T03:44:26.688Z,6.49
2023-04-30T03:45:26.686Z,6.55
2023-04-30T03:46:26.683Z,6.61
2023-04-30T03:47:26.696Z,6.64
2023-04-30T03:48:26.652Z,6.64
2023-04-30T03:49:26.661Z,6.62
2023-04-30T03:50:26.618Z,6.59
2023-04-30T03:51:26.627Z,6.59
2023-04-30T03:52:26.615Z,6.56
2023-04-30T03:53:26.716Z,6.56
2023-04-30T03:54:26.583Z,6.56
2023-04-30T03:55:26.648Z,6.66
2023-04-30T03:56:26.557Z,6.70
2023-04-30T03:57:26.556Z,6.67
2023-04-30T03:58:26.530Z,6.70
2023-04-30T03:59:26.548Z,6.71
2023-04-30T04:00:26.512Z,6.71
2023-04-30T04:01:26.510Z,6.73
2023-04-30T04:02:26.569Z,6.73
2023-04-30T04:03:26.489Z,6.74
2023-04-30T04:04:26.513Z,6.74
2023-04-30T04:05:26.536Z,6.74
2023-04-30T04:06:26.481Z,6.76
2023-04-30T04:07:26.476Z,6.77
2023-04-30T04:08:26.425Z,6.87
2023-04-30T04:09:26.433Z,6.91
2023-04-30T04:10:26.400Z,6.99
2023-04-30T04:11:26.438Z,7.06
2023-04-30T04:12:26.396Z,7.09
2023-04-30T04:13:26.394Z,7.16
2023-04-30T04:14:26.363Z,7.17
2023-04-30T04:15:26.358Z,7.20
2023-04-30T04:16:26.415Z,7.23
2023-04-30T04:17:26.388Z,7.25
2023-04-30T04:18:26.321Z,7.27
2023-04-30T04:19:26.321Z,7.27
2023-04-30T04:20:26.358Z,7.28
2023-04-30T04:21:26.287Z,7.27
2023-04-30T04:22:26.285Z,7.27
2023-04-30T04:23:26.263Z,7.30
2023-04-30T04:24:26.281Z,7.28
2023-04-30T04:25:26.248Z,7.30
2023-04-30T04:26:26.254Z,7.28
2023-04-30T04:27:26.237Z,7.28
2023-04-30T04:28:26.226Z,7.30
2023-04-30T04:29:26.210Z,7.28
2023-04-30T04:30:26.236Z,7.27
2023-04-30T04:31:26.217Z,7.28
2023-04-30T04:32:26.190Z,7.27
2023-04-30T04:33:26.154Z,7.27
2023-04-30T04:34:26.153Z,7.28
2023-04-30T04:35:26.159Z,7.27
2023-04-30T04:36:26.110Z,7.25
2023-04-30T04:37:26.150Z,7.25
2023-04-30T04:38:26.103Z,7.25
2023-04-30T04:39:26.095Z,7.27
2023-04-30T04:40:26.078Z,7.28
2023-04-30T04:41:26.076Z,7.28
2023-04-30T04:42:26.099Z,7.28
2023-04-30T04:43:26.061Z,7.28
2023-04-30T04:44:26.052Z,7.31
2023-04-30T04:45:26.070Z,7.32
2023-04-30T04:46:26.070Z,7.30
2023-04-30T04:47:26.087Z,7.32
2023-04-30T04:48:25.987Z,7.34
2023-04-30T04:49:25.990Z,7.32
2023-04-30T04:50:25.972Z,7.34
2023-04-30T04:51:25.964Z,7.35
2023-04-30T04:52:25.975Z,7.34
2023-04-30T04:53:25.936Z,7.34
2023-04-30T04:54:25.915Z,7.32
2023-04-30T04:55:25.910Z,7.32
2023-04-30T04:56:25.896Z,7.28
2023-04-30T04:57:25.907Z,7.28
2023-04-30T04:58:25.878Z,7.28
2023-04-30T04:59:25.990Z,7.34
2023-04-30T05:00:25.877Z,7.34
2023-04-30T05:01:25.886Z,7.37
2023-04-30T05:02:25.951Z,7.39
2023-04-30T05:03:25.912Z,7.42
2023-04-30T05:04:25.809Z,7.42
2023-04-30T05:05:25.869Z,7.45
2023-04-30T05:06:25.840Z,7.46
2023-04-30T05:07:25.793Z,7.49
2023-04-30T05:08:25.765Z,7.50
2023-04-30T05:09:25.762Z,7.55
2023-04-30T05:10:25.758Z,7.61
2023-04-30T05:11:25.743Z,7.63
2023-04-30T05:12:25.797Z,7.64
2023-04-30T05:13:25.725Z,7.68
2023-04-30T05:14:25.697Z,7.72
2023-04-30T05:15:25.691Z,7.75
2023-04-30T05:16:25.753Z,7.77
2023-04-30T05:17:25.796Z,7.79
2023-04-30T05:18:25.700Z,7.79
2023-04-30T05:19:25.649Z,7.80
2023-04-30T05:20:25.670Z,7.69
2023-04-30T05:21:25.638Z,7.55
2023-04-30T05:22:25.638Z,7.49
2023-04-30T05:23:25.599Z,7.45
2023-04-30T05:24:25.588Z,7.42
2023-04-30T05:25:25.581Z,7.45
2023-04-30T05:26:25.568Z,7.46
2023-04-30T05:27:25.566Z,7.46
2023-04-30T05:28:25.548Z,7.42
2023-04-30T05:29:25.562Z,7.40
2023-04-30T05:30:25.589Z,7.40
2023-04-30T05:31:25.797Z,7.40
2023-04-30T05:32:25.570Z,7.45
2023-04-30T05:33:25.497Z,7.46
2023-04-30T05:34:25.482Z,7.45
2023-04-30T05:35:25.606Z,7.49
2023-04-30T05:36:25.453Z,7.53
2023-04-30T05:37:25.462Z,7.53
2023-04-30T05:38:25.431Z,7.52
2023-04-30T05:39:25.522Z,7.57
2023-04-30T05:40:25.421Z,7.58
2023-04-30T05:41:25.402Z,7.58
2023-04-30T05:42:25.465Z,7.63
2023-04-30T05:43:25.393Z,7.63
2023-04-30T05:44:25.373Z,7.61
2023-04-30T05:45:25.366Z,7.67
2023-04-30T05:46:25.358Z,7.68
2023-04-30T05:47:25.371Z,7.67
2023-04-30T05:48:25.328Z,7.64
2023-04-30T05:49:25.364Z,7.64
2023-04-30T05:50:25.309Z,7.69
2023-04-30T05:51:25.293Z,7.75
2023-04-30T05:52:25.295Z,7.85
2023-04-30T05:53:25.280Z,7.90
2023-04-30T05:54:25.257Z,7.87
2023-04-30T05:55:25.260Z,7.71
2023-04-30T05:56:25.237Z,7.64
2023-04-30T05:57:25.342Z,7.63
2023-04-30T05:58:25.228Z,7.64
2023-04-30T05:59:25.214Z,7.67
2023-04-30T06:00:25.199Z,7.71
2023-04-30T06:01:25.245Z,7.63
2023-04-30T06:02:25.321Z,7.63
2023-04-30T06:03:25.167Z,7.67
2023-04-30T06:04:25.175Z,7.69
2023-04-30T06:05:25.240Z,7.69
2023-04-30T06:06:25.187Z,7.67
2023-04-30T06:07:25.136Z,7.71
2023-04-30T06:08:25.117Z,7.77
2023-04-30T06:09:25.130Z,7.89
2023-04-30T06:10:25.087Z,8.05
2023-04-30T06:11:25.089Z,8.25
2023-04-30T06:12:25.091Z,8.41
2023-04-30T06:13:25.064Z,8.56
2023-04-30T06:14:25.041Z,8.66
2023-04-30T06:15:25.084Z,8.70
2023-04-30T06:16:25.065Z,8.71
2023-04-30T06:17:25.075Z,8.65
2023-04-30T06:18:25.005Z,8.63
2023-04-30T06:19:25.000Z,8.71
2023-04-30T06:20:24.975Z,8.76
2023-04-30T06:21:24.995Z,8.79
2023-04-30T06:22:24.954Z,8.87
2023-04-30T06:23:24.961Z,8.99
2023-04-30T06:24:24.929Z,9.13
2023-04-30T06:25:24.929Z,9.20
2023-04-30T06:26:24.945Z,9.24
2023-04-30T06:27:24.904Z,9.33
2023-04-30T06:28:24.910Z,9.33
2023-04-30T06:29:24.883Z,9.31
2023-04-30T06:30:24.894Z,9.28
2023-04-30T06:31:24.903Z,9.29
2023-04-30T06:32:24.879Z,9.33
2023-04-30T06:33:24.851Z,9.35
2023-04-30T06:34:24.828Z,9.40
2023-04-30T06:35:24.846Z,9.54
2023-04-30T06:36:24.818Z,9.72
2023-04-30T06:37:24.800Z,9.75
2023-04-30T06:38:24.780Z,9.81
2023-04-30T06:39:24.773Z,9.89
2023-04-30T06:40:24.765Z,9.90
2023-04-30T06:41:24.767Z,9.89
2023-04-30T06:42:24.745Z,9.97
2023-04-30T06:43:24.727Z,10.07
2023-04-30T06:44:24.723Z,10.17
2023-04-30T06:45:24.732Z,10.26
2023-04-30T06:46:24.794Z,10.41
2023-04-30T06:47:24.687Z,10.64
2023-04-30T06:48:24.769Z,10.79
2023-04-30T06:49:24.686Z,10.78
2023-04-30T06:50:24.649Z,10.79
2023-04-30T06:51:24.653Z,10.81
2023-04-30T06:52:24.632Z,10.85
2023-04-30T06:53:24.620Z,10.96
2023-04-30T06:54:24.604Z,11.11
2023-04-30T06:55:24.590Z,11.18
2023-04-30T06:56:24.600Z,11.29
2023-04-30T06:57:24.563Z,11.39
2023-04-30T06:58:24.564Z,11.46
2023-04-30T06:59:24.547Z,11.60
2023-04-30T07:00:24.540Z,11.69
2023-04-30T07:01:24.582Z,11.72
2023-04-30T07:02:24.602Z,11.73
2023-04-30T07:03:24.552Z,11.83
2023-04-30T07:04:24.503Z,11.88
2023-04-30T07:05:24.482Z,11.78
2023-04-30T07:06:24.500Z,11.75
2023-04-30T07:07:24.472Z,11.78
2023-04-30T07:08:24.449Z,11.88
2023-04-30T07:09:24.429Z,11.85
2023-04-30T07:10:24.550Z,12.02
2023-04-30T07:11:24.416Z,12.10
2023-04-30T07:12:24.395Z,12.14
2023-04-30T07:13:24.391Z,12.21
2023-04-30T07:14:24.388Z,12.31
2023-04-30T07:15:24.366Z,12.37
2023-04-30T07:16:24.452Z,12.42
2023-04-30T07:17:26.039Z,12.53
2023-04-30T07:18:24.333Z,12.59
2023-04-30T07:19:24.326Z,12.64
2023-04-30T07:20:24.324Z,12.71
2023-04-30T07:21:24.362Z,12.68
2023-04-30T07:22:24.312Z,12.52
2023-04-30T07:23:24.278Z,12.50
2023-04-30T07:24:24.269Z,12.57
2023-04-30T07:25:24.255Z,12.54
2023-04-30T07:26:24.269Z,12.64
2023-04-30T07:27:24.223Z,12.78
2023-04-30T07:28:24.240Z,12.86
2023-04-30T07:29:24.208Z,12.95
2023-04-30T07:30:25.194Z,12.95
2023-04-30T07:31:24.221Z,13.00
2023-04-30T07:32:24.183Z,13.03
2023-04-30T07:33:24.164Z,13.10
2023-04-30T07:34:24.158Z,13.17
2023-04-30T07:35:24.169Z,13.25
2023-04-30T07:36:24.149Z,13.32
2023-04-30T07:37:24.131Z,13.33
2023-04-30T07:38:24.157Z,13.26
2023-04-30T07:39:24.110Z,13.33
2023-04-30T07:40:34.896Z,13.44
2023-04-30T07:41:25.110Z,13.36
2023-04-30T07:42:24.062Z,13.29
2023-04-30T07:43:24.062Z,13.20
2023-04-30T07:44:24.079Z,13.12
2023-04-30T07:45:24.153Z,13.26
2023-04-30T07:46:24.056Z,13.44
2023-04-30T07:47:24.074Z,13.57
2023-04-30T07:48:24.009Z,13.70
2023-04-30T07:49:24.060Z,13.79
2023-04-30T07:50:24.004Z,13.88
2023-04-30T07:51:23.979Z,14.00
2023-04-30T07:52:24.013Z,14.15
2023-04-30T07:53:23.953Z,14.21
2023-04-30T07:54:23.929Z,14.24
2023-04-30T07:55:23.929Z,14.25
2023-04-30T07:56:23.974Z,14.32
2023-04-30T07:57:23.904Z,14.28
2023-04-30T07:58:23.961Z,14.22
2023-04-30T07:59:23.904Z,14.27
2023-04-30T08:00:23.872Z,14.36
2023-04-30T08:01:23.923Z,14.45
2023-04-30T08:02:23.967Z,14.50
2023-04-30T08:03:23.940Z,14.54
2023-04-30T08:04:23.954Z,14.51
2023-04-30T08:05:23.997Z,14.52
2023-04-30T08:06:23.848Z,14.64
2023-04-30T08:07:23.806Z,14.65
2023-04-30T08:08:23.821Z,14.36
2023-04-30T08:09:23.876Z,14.22
2023-04-30T08:10:23.785Z,13.85
2023-04-30T08:11:23.780Z,13.95
2023-04-30T08:12:23.753Z,14.10
2023-04-30T08:13:23.755Z,14.09
2023-04-30T08:14:23.731Z,14.00
2023-04-30T08:15:23.713Z,14.00
2023-04-30T08:16:23.797Z,14.07
2023-04-30T08:17:24.099Z,14.32
2023-04-30T08:18:23.685Z,14.57
2023-04-30T08:19:23.698Z,14.72
2023-04-30T08:20:23.887Z,14.81
2023-04-30T08:21:23.654Z,14.89
2023-04-30T08:22:23.638Z,15.02
2023-04-30T08:23:23.645Z,14.86
2023-04-30T08:24:23.640Z,14.80
2023-04-30T08:25:23.652Z,14.88
2023-04-30T08:26:23.618Z,14.86
2023-04-30T08:27:23.609Z,14.69
2023-04-30T08:28:23.575Z,14.64
2023-04-30T08:29:23.567Z,14.70
2023-04-30T08:30:23.553Z,14.91
2023-04-30T08:31:23.613Z,15.20
2023-04-30T08:32:23.726Z,15.21
2023-04-30T08:33:23.581Z,15.39
2023-04-30T08:34:23.502Z,15.51
2023-04-30T08:35:23.528Z,15.67
2023-04-30T08:36:23.486Z,15.78
2023-04-30T08:37:23.480Z,15.96
2023-04-30T08:38:23.494Z,16.11
2023-04-30T08:39:23.467Z,16.23
2023-04-30T08:40:33.744Z,16.30
2023-04-30T08:41:24.704Z,16.35
2023-04-30T08:42:23.450Z,16.41
2023-04-30T08:43:23.455Z,16.42
2023-04-30T08:44:24.068Z,16.39
2023-04-30T08:45:23.405Z,16.43
2023-04-30T08:46:23.500Z,16.39
2023-04-30T08:47:23.387Z,16.48
2023-04-30T08:48:23.365Z,16.52
2023-04-30T08:49:24.690Z,16.49
2023-04-30T08:50:23.339Z,16.60
2023-04-30T08:51:23.332Z,16.68
2023-04-30T08:52:23.311Z,16.68
2023-04-30T08:53:23.313Z,16.66
2023-04-30T08:54:23.319Z,16.60
2023-04-30T08:55:23.308Z,16.60
2023-04-30T08:56:25.310Z,16.71
2023-04-30T08:57:23.278Z,16.75
2023-04-30T08:58:23.253Z,16.79
2023-04-30T08:59:23.244Z,16.89
2023-04-30T09:00:23.221Z,16.98
2023-04-30T09:01:23.328Z,17.06
2023-04-30T09:02:23.365Z,17.07
2023-04-30T09:03:23.300Z,17.11
2023-04-30T09:04:23.191Z,17.15
2023-04-30T09:05:23.210Z,17.16
2023-04-30T09:06:23.197Z,17.22
2023-04-30T09:07:23.188Z,17.14
2023-04-30T09:08:23.149Z,17.11
2023-04-30T09:09:23.206Z,17.21
2023-04-30T09:10:23.128Z,17.37
2023-04-30T09:11:23.150Z,17.49
2023-04-30T09:12:23.143Z,17.59
2023-04-30T09:13:23.128Z,17.49
2023-04-30T09:14:23.086Z,17.54
2023-04-30T09:15:23.081Z,17.40
2023-04-30T09:16:23.158Z,17.43
2023-04-30T09:17:23.098Z,17.40
2023-04-30T09:18:23.044Z,17.55
2023-04-30T09:19:23.045Z,17.66
2023-04-30T09:20:23.035Z,17.71
2023-04-30T09:21:23.020Z,17.78
2023-04-30T09:22:23.029Z,17.95
2023-04-30T09:23:23.013Z,18.03
2023-04-30T09:24:22.984Z,18.00
2023-04-30T09:25:23.013Z,17.93
2023-04-30T09:26:22.977Z,17.97
2023-04-30T09:27:22.963Z,18.05
2023-04-30T09:28:23.076Z,18.08
2023-04-30T09:29:22.943Z,18.10
2023-04-30T09:30:22.918Z,18.05
2023-04-30T09:31:22.996Z,17.95
2023-04-30T09:32:22.971Z,17.89
2023-04-30T09:33:22.892Z,17.99
2023-04-30T09:34:22.900Z,17.84
2023-04-30T09:35:22.874Z,17.89
2023-04-30T09:36:22.887Z,17.96
2023-04-30T09:37:22.870Z,18.18
2023-04-30T09:38:22.890Z,18.32
2023-04-30T09:39:22.862Z,18.37
2023-04-30T09:40:22.827Z,18.42
2023-04-30T09:41:22.817Z,18.52
2023-04-30T09:42:22.858Z,18.55
2023-04-30T09:43:22.808Z,18.47
2023-04-30T09:44:22.821Z,18.39
2023-04-30T09:45:22.801Z,18.35
2023-04-30T09:46:22.839Z,18.37
2023-04-30T09:47:22.793Z,18.36
2023-04-30T09:48:22.949Z,18.30
2023-04-30T09:49:22.740Z,18.37
2023-04-30T09:50:22.758Z,18.50
2023-04-30T09:51:22.721Z,18.58
2023-04-30T09:52:22.712Z,18.65
2023-04-30T09:53:22.696Z,18.70
2023-04-30T09:54:22.736Z,18.67
2023-04-30T09:55:22.698Z,18.57
2023-04-30T09:56:22.686Z,18.63
2023-04-30T09:57:22.662Z,18.80
2023-04-30T09:58:22.664Z,18.85
2023-04-30T09:59:22.667Z,18.88
2023-04-30T10:00:22.641Z,18.55
2023-04-30T10:01:22.735Z,18.00
2023-04-30T10:02:22.769Z,18.15
2023-04-30T10:03:22.587Z,17.95
2023-04-30T10:04:22.652Z,17.87
2023-04-30T10:05:22.577Z,17.95
2023-04-30T10:06:22.646Z,18.30
2023-04-30T10:07:22.974Z,18.55
2023-04-30T10:08:22.559Z,18.70
2023-04-30T10:09:22.703Z,18.70
2023-04-30T10:10:22.530Z,18.66
2023-04-30T10:11:22.540Z,18.65
2023-04-30T10:12:22.552Z,18.67
2023-04-30T10:13:22.497Z,18.69
2023-04-30T10:14:22.500Z,18.67
2023-04-30T10:15:22.476Z,18.70
2023-04-30T10:16:22.514Z,18.72
2023-04-30T10:17:22.575Z,18.81
2023-04-30T10:18:22.458Z,18.98
2023-04-30T10:19:22.464Z,19.13
2023-04-30T10:20:22.471Z,19.06
2023-04-30T10:21:22.426Z,19.00
2023-04-30T10:22:22.425Z,19.00
2023-04-30T10:23:22.400Z,19.29
2023-04-30T10:24:22.394Z,19.36
2023-04-30T10:25:22.393Z,19.26
2023-04-30T10:26:22.406Z,19.36
2023-04-30T10:27:22.378Z,19.44
2023-04-30T10:28:22.352Z,19.40
2023-04-30T10:29:22.334Z,19.32
2023-04-30T10:30:22.358Z,19.36
2023-04-30T10:31:22.407Z,19.29
2023-04-30T10:32:22.513Z,19.26
2023-04-30T10:33:22.347Z,19.31
2023-04-30T10:34:22.368Z,19.44
2023-04-30T10:35:22.307Z,19.65
2023-04-30T10:36:22.276Z,19.91
2023-04-30T10:37:22.348Z,19.94
2023-04-30T10:38:22.263Z,19.73
2023-04-30T10:39:22.290Z,19.33
2023-04-30T10:40:22.244Z,18.90
2023-04-30T10:41:22.249Z,18.73
2023-04-30T10:42:22.230Z,18.84
2023-04-30T10:43:22.260Z,19.00
2023-04-30T10:44:22.267Z,19.23
2023-04-30T10:45:22.219Z,19.43
2023-04-30T10:46:22.291Z,19.59
2023-04-30T10:47:22.154Z,19.76
2023-04-30T10:48:22.167Z,19.87
2023-04-30T10:49:22.154Z,20.08
2023-04-30T10:50:22.127Z,20.02
2023-04-30T10:51:22.257Z,19.73
2023-04-30T10:52:22.116Z,19.66
2023-04-30T10:53:22.103Z,19.83
2023-04-30T10:54:22.090Z,19.95
2023-04-30T10:55:22.104Z,20.03
2023-04-30T10:56:22.116Z,20.17
2023-04-30T10:57:22.074Z,20.32
2023-04-30T10:58:22.074Z,20.32
2023-04-30T10:59:22.088Z,20.31
2023-04-30T11:00:22.051Z,20.16
2023-04-30T11:01:22.095Z,19.76
2023-04-30T11:02:22.089Z,19.32
2023-04-30T11:03:22.031Z,19.23
2023-04-30T11:04:22.083Z,19.31
2023-04-30T11:05:22.011Z,19.44
2023-04-30T11:06:22.027Z,19.65
2023-04-30T11:07:21.977Z,19.69
2023-04-30T11:08:21.975Z,19.76
2023-04-30T11:09:21.947Z,19.81
2023-04-30T11:10:21.960Z,19.81
2023-04-30T11:11:21.945Z,19.84
2023-04-30T11:12:21.918Z,19.91
2023-04-30T11:13:21.905Z,19.88
2023-04-30T11:14:21.923Z,20.03
2023-04-30T11:15:21.898Z,20.06
2023-04-30T11:16:21.937Z,20.01
2023-04-30T11:17:21.907Z,20.02
2023-04-30T11:18:21.872Z,20.02
2023-04-30T11:19:21.864Z,19.98
2023-04-30T11:20:21.944Z,19.96
2023-04-30T11:21:21.819Z,20.10
2023-04-30T11:22:21.849Z,20.39
2023-04-30T11:23:28.570Z,20.20
2023-04-30T11:24:22.814Z,20.33
2023-04-30T11:25:21.808Z,20.58
2023-04-30T11:26:21.800Z,20.52
2023-04-30T11:27:21.861Z,20.32
2023-04-30T11:28:21.794Z,20.01
2023-04-30T11:29:21.830Z,19.77
2023-04-30T11:30:21.792Z,19.62
2023-04-30T11:31:21.815Z,19.47
2023-04-30T11:32:21.801Z,19.22
2023-04-30T11:33:21.719Z,18.95
2023-04-30T11:34:21.730Z,18.76
2023-04-30T11:35:21.706Z,18.72
2023-04-30T11:36:21.685Z,18.95
2023-04-30T11:37:21.726Z,19.14
2023-04-30T11:38:21.686Z,18.98
2023-04-30T11:39:21.649Z,19.04
2023-04-30T11:40:21.668Z,19.00
2023-04-30T11:41:21.674Z,19.22
2023-04-30T11:42:21.653Z,19.71
2023-04-30T11:43:21.650Z,19.86
2023-04-30T11:44:21.660Z,19.95
2023-04-30T11:45:21.601Z,20.08
2023-04-30T11:46:21.599Z,20.35
2023-04-30T11:47:21.774Z,20.67
2023-04-30T11:48:21.602Z,20.82
2023-04-30T11:49:21.580Z,20.79
2023-04-30T11:50:21.564Z,20.70
2023-04-30T11:51:21.553Z,20.70
2023-04-30T11:52:21.553Z,20.91
2023-04-30T11:53:21.512Z,20.82
2023-04-30T11:54:21.543Z,20.72
2023-04-30T11:55:21.560Z,20.59
2023-04-30T11:56:21.596Z,20.55
2023-04-30T11:57:21.470Z,20.64
2023-04-30T11:58:21.465Z,20.70
2023-04-30T11:59:21.462Z,20.89
2023-04-30T12:00:21.451Z,21.14
2023-04-30T12:01:21.538Z,21.32
2023-04-30T12:02:21.623Z,21.07
2023-04-30T12:03:21.491Z,20.69
2023-04-30T12:04:21.458Z,20.43
2023-04-30T12:05:21.427Z,20.28
2023-04-30T12:06:21.447Z,20.06
2023-04-30T12:07:22.676Z,19.99
2023-04-30T12:08:21.378Z,19.91
2023-04-30T12:09:21.373Z,19.88
2023-04-30T12:10:21.373Z,20.11
2023-04-30T12:11:21.353Z,20.47
2023-04-30T12:12:21.357Z,20.29
2023-04-30T12:13:21.329Z,20.29
2023-04-30T12:14:21.343Z,20.47
2023-04-30T12:15:21.312Z,20.54
2023-04-30T12:16:21.326Z,20.64
2023-04-30T12:17:21.352Z,20.74
2023-04-30T12:18:21.289Z,20.70
2023-04-30T12:19:21.279Z,20.92
2023-04-30T12:20:21.255Z,20.94
2023-04-30T12:21:21.283Z,21.09
2023-04-30T12:22:21.245Z,21.14
2023-04-30T12:23:21.226Z,21.14
2023-04-30T12:24:21.233Z,21.12
2023-04-30T12:25:21.248Z,20.95
2023-04-30T12:26:21.194Z,20.72
2023-04-30T12:27:21.187Z,20.62
2023-04-30T12:28:21.269Z,20.42
2023-04-30T12:29:21.201Z,20.20
2023-04-30T12:30:21.150Z,20.33
2023-04-30T12:31:21.199Z,20.39
2023-04-30T12:32:21.345Z,20.33
2023-04-30T12:33:21.227Z,20.05
2023-04-30T12:34:21.110Z,20.11
2023-04-30T12:35:21.226Z,20.29
2023-04-30T12:36:21.099Z,20.64
2023-04-30T12:37:21.077Z,20.99
2023-04-30T12:38:21.116Z,21.06
2023-04-30T12:39:21.064Z,21.22
2023-04-30T12:40:21.081Z,21.13
2023-04-30T12:41:21.041Z,20.98
2023-04-30T12:42:21.034Z,21.06
2023-04-30T12:43:21.020Z,21.14
2023-04-30T12:44:21.045Z,20.97
2023-04-30T12:45:21.008Z,20.91
2023-04-30T12:46:21.050Z,20.91
2023-04-30T12:47:20.987Z,21.09
2023-04-30T12:48:20.990Z,21.09
2023-04-30T12:49:20.964Z,21.10
2023-04-30T12:50:20.977Z,20.95
2023-04-30T12:51:20.936Z,20.95
2023-04-30T12:52:20.940Z,21.09
2023-04-30T12:53:20.922Z,21.35
2023-04-30T12:54:20.908Z,21.34
2023-04-30T12:55:20.994Z,21.31
2023-04-30T12:56:20.886Z,21.21
2023-04-30T12:57:20.883Z,21.28
2023-04-30T12:58:20.943Z,21.31
2023-04-30T12:59:20.866Z,21.35
2023-04-30T13:00:20.861Z,21.50
2023-04-30T13:01:20.889Z,21.47
2023-04-30T13:02:20.916Z,21.46
2023-04-30T13:03:21.073Z,21.58
2023-04-30T13:04:20.830Z,21.68
2023-04-30T13:05:20.835Z,21.50